TimeMST,TemperatureF,Dew PointF,Humidity,Sea Level PressureIn,VisibilityMPH,Wind Direction,Wind SpeedMPH,Gust SpeedMPH,PrecipitationIn,Events,Conditions,WindDirDegrees,DateUTC
12:53 AM,21.9,17.1,82,30.28,10.0,SW,12.7,-,N/A,,Clear,220,2012-11-27 07:53:00
1:53 AM,21.0,17.1,85,30.27,10.0,WSW,8.1,-,N/A,,Clear,240,2012-11-27 08:53:00
2:53 AM,18.0,14.0,84,30.27,10.0,West,4.6,-,N/A,,Clear,270,2012-11-27 09:53:00
3:53 AM,17.1,12.9,84,30.23,10.0,West,4.6,-,N/A,,Clear,270,2012-11-27 10:53:00
4:53 AM,15.1,10.9,84,30.25,10.0,WSW,8.1,-,N/A,,Clear,240,2012-11-27 11:53:00
5:53 AM,15.1,10.9,84,30.28,10.0,West,4.6,-,N/A,,Clear,270,2012-11-27 12:53:00
6:53 AM,16.0,10.9,81,30.28,10.0,West,8.1,-,N/A,,Clear,260,2012-11-27 13:53:00
7:53 AM,23.0,19.0,85,30.27,9.0,WSW,5.8,-,N/A,,Clear,240,2012-11-27 14:53:00
8:53 AM,35.1,27.0,72,30.23,10.0,West,3.5,-,N/A,,Clear,260,2012-11-27 15:53:00
9:53 AM,42.1,28.0,58,30.23,10.0,SW,6.9,-,N/A,,Clear,220,2012-11-27 16:53:00
10:53 AM,51.1,23.0,33,30.19,10.0,SW,5.8,-,N/A,,Clear,230,2012-11-27 17:53:00
11:53 AM,55.0,19.9,25,30.15,10.0,Variable,3.5,-,N/A,,Clear,0,2012-11-27 18:53:00
12:53 PM,57.9,15.1,19,30.12,10.0,North,8.1,-,N/A,,Clear,10,2012-11-27 19:53:00
1:53 PM,60.1,8.1,13,30.10,10.0,NW,20.7,26.5,N/A,,Clear,320,2012-11-27 20:53:00
2:34 PM,57.2,15.8,20,30.10,10.0,North,9.2,-,N/A,,Clear,10,2012-11-27 21:34:00
2:53 PM,55.9,16.0,21,30.15,10.0,NE,12.7,-,N/A,,Clear,40,2012-11-27 21:53:00
3:53 PM,50.0,16.0,26,30.19,10.0,NNE,10.4,-,N/A,,Clear,30,2012-11-27 22:53:00
4:53 PM,39.0,14.0,36,30.27,10.0,ENE,8.1,-,N/A,,Clear,60,2012-11-27 23:53:00
5:53 PM,36.0,17.1,46,30.30,10.0,NE,9.2,-,N/A,,Clear,50,2012-11-28 00:53:00
6:53 PM,30.9,16.0,54,30.33,10.0,Calm,Calm,-,N/A,,Clear,0,2012-11-28 01:53:00
7:53 PM,21.9,12.0,66,30.35,10.0,Calm,Calm,-,N/A,,Clear,0,2012-11-28 02:53:00
8:53 PM,19.0,12.0,74,30.34,10.0,Calm,Calm,-,N/A,,Clear,0,2012-11-28 03:53:00
9:53 PM,18.0,10.9,74,30.32,10.0,SW,4.6,-,N/A,,Clear,220,2012-11-28 04:53:00
10:53 PM,18.0,10.9,74,30.29,10.0,WSW,5.8,-,N/A,,Clear,240,2012-11-28 05:53:00
11:53 PM,18.0,10.9,74,30.27,10.0,SW,3.5,-,N/A,,Clear,230,2012-11-28 06:53:00